ADDS METAR Data

Data at: 1831 UTC 20 Jul 2018

METAR for:KORH (Worcester Muni, MA, US)
Text:KORH 201754Z VRB04KT 10SM CLR 26/12 A3018
Temperature: 26.0°C ( 79°F)
Dewpoint: 12.0°C ( 54°F) [RH = 42%]
Pressure (altimeter):30.18 inches Hg (1022.1 mb)
Winds:variable direction winds at 5 MPH (4 knots; 2.1 m/s)
Visibility:10 or more sm (16+ km)
Ceiling:at least 12,000 feet AGL
Clouds:sky clear below 12,000 feet AGL